Terminal Aerodrome Forecast
Issued by NWS

Home | Current Version | Previous Version | Text Only | Print | Product List | Glossary On
Versions: 1 2 3 4 5 6 7 8 9 10 11 12
000
FTUS42 TJSJ 022340
TAFISX
TAF
TISX 022340Z 0300/0324 VRB04KT P6SM VCSH SCT028
     FM031300 13010KT P6SM SCT025
     FM032330 09007KT P6SM SCT025=

USA.gov is the U.S. government's official web portal to all federal, state and local government web resources and services.